createdAt,value
2018-12-20T00:00:24.345Z,5.18
2018-12-20T00:01:24.461Z,5.15
2018-12-20T00:02:24.351Z,5.21
2018-12-20T00:03:24.434Z,5.15
2018-12-20T00:04:24.319Z,5.24
2018-12-20T00:05:24.287Z,5.15
2018-12-20T00:06:24.371Z,5.17
2018-12-20T00:07:24.297Z,5.17
2018-12-20T00:08:24.340Z,5.22
2018-12-20T00:09:24.292Z,5.18
2018-12-20T00:10:24.264Z,5.10
2018-12-20T00:11:24.354Z,5.12
2018-12-20T00:12:24.205Z,5.12
2018-12-20T00:13:24.205Z,5.12
2018-12-20T00:14:29.931Z,5.10
2018-12-20T00:15:25.168Z,5.10
2018-12-20T00:16:24.184Z,5.17
2018-12-20T00:17:24.159Z,5.06
2018-12-20T00:18:24.153Z,5.17
2018-12-20T00:19:24.131Z,5.10
2018-12-20T00:20:24.225Z,5.20
2018-12-20T00:21:24.217Z,5.03
2018-12-20T00:22:24.153Z,5.09
2018-12-20T00:23:24.088Z,5.20
2018-12-20T00:24:24.074Z,5.15
2018-12-20T00:25:24.079Z,5.10
2018-12-20T00:26:24.154Z,5.15
2018-12-20T00:27:24.073Z,5.13
2018-12-20T00:28:24.017Z,5.15
2018-12-20T00:29:24.084Z,5.12
2018-12-20T00:30:24.170Z,5.18
2018-12-20T00:31:24.162Z,5.12
2018-12-20T00:32:23.981Z,5.06
2018-12-20T00:33:24.012Z,5.13
2018-12-20T00:34:24.137Z,5.15
2018-12-20T00:35:24.031Z,5.00
2018-12-20T00:36:24.003Z,5.12
2018-12-20T00:37:23.937Z,5.15
2018-12-20T00:38:23.913Z,5.20
2018-12-20T00:39:23.988Z,5.13
2018-12-20T00:40:23.994Z,5.21
2018-12-20T00:41:24.063Z,5.09
2018-12-20T00:42:23.995Z,5.07
2018-12-20T00:43:23.865Z,5.20
2018-12-20T00:44:23.845Z,5.07
2018-12-20T00:45:23.945Z,5.06
2018-12-20T00:46:23.832Z,5.03
2018-12-20T00:47:23.923Z,5.06
2018-12-20T00:48:24.044Z,5.02
2018-12-20T00:49:23.803Z,5.04
2018-12-20T00:50:23.775Z,5.07
2018-12-20T00:51:23.801Z,5.13
2018-12-20T00:52:23.873Z,5.12
2018-12-20T00:53:23.764Z,5.12
2018-12-20T00:54:23.953Z,5.12
2018-12-20T00:55:23.726Z,5.13
2018-12-20T00:56:23.874Z,5.10
2018-12-20T00:57:23.729Z,5.07
2018-12-20T00:58:23.753Z,5.00
2018-12-20T00:59:23.683Z,5.06
2018-12-20T01:00:23.802Z,5.04
2018-12-20T01:01:23.773Z,5.06
2018-12-20T01:02:23.737Z,5.04
2018-12-20T01:03:23.724Z,5.03
2018-12-20T01:04:23.748Z,5.13
2018-12-20T01:05:23.844Z,5.15
2018-12-20T01:06:23.614Z,5.15
2018-12-20T01:07:23.643Z,5.10
2018-12-20T01:08:23.731Z,5.15
2018-12-20T01:09:23.585Z,5.09
2018-12-20T01:10:23.558Z,5.17
2018-12-20T01:11:23.557Z,5.13
2018-12-20T01:12:23.665Z,5.12
2018-12-20T01:13:23.557Z,5.20
2018-12-20T01:14:23.542Z,5.17
2018-12-20T01:15:23.512Z,5.18
2018-12-20T01:16:23.507Z,5.21
2018-12-20T01:17:23.567Z,5.15
2018-12-20T01:18:23.473Z,5.17
2018-12-20T01:19:23.591Z,5.18
2018-12-20T01:20:23.435Z,5.17
2018-12-20T01:21:23.508Z,5.13
2018-12-20T01:22:23.444Z,5.13
2018-12-20T01:23:23.441Z,5.17
2018-12-20T01:24:23.499Z,5.15
2018-12-20T01:25:23.544Z,5.20
2018-12-20T01:26:23.421Z,5.20
2018-12-20T01:27:23.449Z,5.21
2018-12-20T01:28:23.489Z,5.17
2018-12-20T01:29:23.389Z,5.12
2018-12-20T01:30:23.371Z,5.18
2018-12-20T01:31:23.331Z,5.15
2018-12-20T01:32:23.422Z,5.12
2018-12-20T01:33:23.338Z,5.22
2018-12-20T01:34:23.287Z,5.20
2018-12-20T01:35:23.393Z,5.31
2018-12-20T01:36:23.538Z,5.18
2018-12-20T01:37:23.251Z,5.15
2018-12-20T01:38:23.397Z,5.22
2018-12-20T01:39:23.412Z,5.22
2018-12-20T01:40:23.217Z,5.20
2018-12-20T01:41:23.271Z,5.27
2018-12-20T01:42:23.273Z,5.30
2018-12-20T01:43:23.213Z,5.33
2018-12-20T01:44:23.191Z,5.31
2018-12-20T01:45:23.162Z,5.27
2018-12-20T01:46:23.307Z,5.30
2018-12-20T01:47:23.138Z,5.31
2018-12-20T01:48:23.310Z,5.30
2018-12-20T01:49:23.122Z,5.28
2018-12-20T01:50:23.280Z,5.36
2018-12-20T01:51:23.092Z,5.38
2018-12-20T01:52:23.100Z,5.35
2018-12-20T01:53:23.083Z,5.35
2018-12-20T01:54:23.108Z,5.35
2018-12-20T01:55:23.215Z,5.35
2018-12-20T01:56:23.057Z,5.33
2018-12-20T01:57:23.204Z,5.33
2018-12-20T01:58:23.188Z,5.38
2018-12-20T01:59:23.061Z,5.33
2018-12-20T02:00:23.065Z,5.38
2018-12-20T02:01:22.992Z,5.33
2018-12-20T02:02:23.004Z,5.33
2018-12-20T02:03:23.005Z,5.40
2018-12-20T02:04:23.139Z,5.30
2018-12-20T02:05:22.954Z,5.30
2018-12-20T02:06:22.973Z,5.33
2018-12-20T02:07:23.022Z,5.36
2018-12-20T02:08:22.922Z,5.35
2018-12-20T02:09:23.025Z,5.40
2018-12-20T02:10:23.072Z,5.35
2018-12-20T02:11:22.930Z,5.35
2018-12-20T02:12:23.023Z,5.33
2018-12-20T02:13:22.971Z,5.31
2018-12-20T02:14:22.843Z,5.31
2018-12-20T02:15:22.969Z,5.38
2018-12-20T02:16:22.889Z,5.35
2018-12-20T02:17:22.812Z,5.38
2018-12-20T02:18:22.817Z,5.35
2018-12-20T02:19:22.808Z,5.35
2018-12-20T02:20:22.886Z,5.38
2018-12-20T02:21:22.832Z,5.38
2018-12-20T02:22:22.997Z,5.38
2018-12-20T02:23:22.849Z,5.39
2018-12-20T02:24:22.748Z,5.35
2018-12-20T02:25:22.789Z,5.31
2018-12-20T02:26:22.887Z,5.35
2018-12-20T02:27:22.702Z,5.35
2018-12-20T02:28:22.681Z,5.35
2018-12-20T02:29:22.673Z,5.35
2018-12-20T02:30:22.718Z,5.27
2018-12-20T02:31:22.649Z,5.38
2018-12-20T02:32:22.658Z,5.35
2018-12-20T02:33:22.819Z,5.36
2018-12-20T02:34:22.694Z,5.40
2018-12-20T02:35:22.601Z,5.38
2018-12-20T02:36:22.610Z,5.35
2018-12-20T02:37:22.855Z,5.36
2018-12-20T02:38:22.565Z,5.33
2018-12-20T02:39:22.548Z,5.33
2018-12-20T02:40:22.654Z,5.38
2018-12-20T02:41:22.779Z,5.33
2018-12-20T02:42:22.525Z,5.35
2018-12-20T02:43:22.532Z,5.31
2018-12-20T02:44:22.682Z,5.39
2018-12-20T02:45:22.684Z,5.25
2018-12-20T02:46:22.629Z,5.38
2018-12-20T02:47:22.460Z,5.38
2018-12-20T02:48:22.613Z,5.35
2018-12-20T02:49:22.439Z,5.36
2018-12-20T02:50:22.474Z,5.36
2018-12-20T02:51:22.758Z,5.35
2018-12-20T02:52:22.405Z,5.38
2018-12-20T02:53:22.452Z,5.35
2018-12-20T02:54:22.381Z,5.28
2018-12-20T02:55:22.568Z,5.33
2018-12-20T02:56:22.615Z,5.24
2018-12-20T02:57:22.565Z,5.24
2018-12-20T02:58:22.571Z,5.31
2018-12-20T02:59:22.463Z,5.24
2018-12-20T03:00:22.432Z,5.27
2018-12-20T03:01:22.408Z,5.30
2018-12-20T03:02:22.291Z,5.25
2018-12-20T03:03:22.412Z,5.35
2018-12-20T03:04:22.458Z,5.28
2018-12-20T03:05:22.272Z,5.30
2018-12-20T03:06:22.455Z,5.38
2018-12-20T03:07:22.248Z,5.31
2018-12-20T03:08:22.263Z,5.33
2018-12-20T03:09:22.388Z,5.38
2018-12-20T03:10:22.399Z,5.35
2018-12-20T03:11:22.229Z,5.35
2018-12-20T03:12:22.327Z,5.30
2018-12-20T03:13:22.184Z,5.30
2018-12-20T03:14:22.355Z,5.35
2018-12-20T03:15:22.150Z,5.24
2018-12-20T03:16:22.366Z,5.27
2018-12-20T03:17:22.169Z,5.30
2018-12-20T03:18:22.299Z,5.30
2018-12-20T03:19:22.409Z,5.31
2018-12-20T03:20:22.101Z,5.35
2018-12-20T03:21:22.167Z,5.35
2018-12-20T03:22:22.188Z,5.35
2018-12-20T03:23:22.063Z,5.36
2018-12-20T03:24:22.332Z,5.38
2018-12-20T03:25:22.205Z,5.35
2018-12-20T03:26:22.044Z,5.30
2018-12-20T03:27:22.063Z,5.38
2018-12-20T03:28:22.033Z,5.31
2018-12-20T03:29:22.230Z,5.33
2018-12-20T03:30:22.141Z,5.33
2018-12-20T03:31:21.988Z,5.31
2018-12-20T03:32:22.190Z,5.38
2018-12-20T03:33:22.004Z,5.38
2018-12-20T03:34:22.095Z,5.38
2018-12-20T03:35:22.048Z,5.28
2018-12-20T03:36:22.035Z,5.40
2018-12-20T03:37:22.009Z,5.35
2018-12-20T03:38:21.916Z,5.28
2018-12-20T03:39:22.151Z,5.33
2018-12-20T03:40:21.876Z,5.35
2018-12-20T03:41:21.882Z,5.27
2018-12-20T03:42:21.846Z,5.30
2018-12-20T03:43:21.904Z,5.33
2018-12-20T03:44:21.850Z,5.40
2018-12-20T03:45:28.637Z,5.35
2018-12-20T03:46:23.126Z,5.35
2018-12-20T03:47:21.820Z,5.39
2018-12-20T03:48:21.810Z,5.38
2018-12-20T03:49:21.890Z,5.25
2018-12-20T03:50:21.807Z,5.40
2018-12-20T03:51:21.900Z,5.31
2018-12-20T03:52:21.974Z,5.39
2018-12-20T03:53:21.939Z,5.35
2018-12-20T03:54:21.720Z,5.38
2018-12-20T03:55:21.853Z,5.33
2018-12-20T03:56:21.694Z,5.31
2018-12-20T03:57:21.915Z,5.31
2018-12-20T03:58:21.751Z,5.33
2018-12-20T03:59:22.023Z,5.35
2018-12-20T04:00:21.904Z,5.36
2018-12-20T04:01:21.630Z,5.30
2018-12-20T04:02:21.628Z,5.27
2018-12-20T04:03:21.645Z,5.31
2018-12-20T04:04:21.599Z,5.28
2018-12-20T04:05:21.858Z,5.17
2018-12-20T04:06:21.619Z,5.15
2018-12-20T04:07:21.662Z,5.22
2018-12-20T04:08:21.625Z,5.12
2018-12-20T04:09:21.813Z,5.21
2018-12-20T04:10:21.596Z,5.17
2018-12-20T04:11:21.768Z,5.12
2018-12-20T04:12:21.512Z,5.17
2018-12-20T04:13:21.637Z,5.13
2018-12-20T04:14:21.548Z,5.09
2018-12-20T04:15:21.724Z,5.13
2018-12-20T04:16:21.785Z,5.17
2018-12-20T04:17:21.461Z,5.10
2018-12-20T04:18:21.525Z,5.10
2018-12-20T04:19:21.728Z,5.17
2018-12-20T04:20:21.569Z,5.10
2018-12-20T04:21:21.405Z,5.10
2018-12-20T04:22:21.461Z,5.15
2018-12-20T04:23:21.390Z,5.17
2018-12-20T04:24:21.405Z,5.12
2018-12-20T04:25:21.415Z,5.17
2018-12-20T04:26:21.353Z,5.17
2018-12-20T04:27:21.358Z,5.07
2018-12-20T04:28:21.678Z,5.12
2018-12-20T04:29:21.363Z,5.17
2018-12-20T04:30:21.316Z,5.13
2018-12-20T04:31:21.312Z,5.21
2018-12-20T04:32:21.302Z,5.20
2018-12-20T04:33:21.680Z,5.20
2018-12-20T04:34:21.318Z,5.18
2018-12-20T04:35:21.269Z,5.18
2018-12-20T04:36:21.423Z,5.17
2018-12-20T04:37:21.381Z,5.18
2018-12-20T04:38:21.237Z,5.20
2018-12-20T04:39:21.288Z,5.17
2018-12-20T04:40:21.214Z,5.20
2018-12-20T04:41:21.184Z,5.20
2018-12-20T04:42:21.362Z,5.24
2018-12-20T04:43:21.168Z,5.17
2018-12-20T04:44:21.398Z,5.15
2018-12-20T04:45:21.204Z,5.18
2018-12-20T04:46:21.133Z,5.18
2018-12-20T04:47:21.376Z,5.20
2018-12-20T04:48:21.318Z,5.17
2018-12-20T04:49:21.098Z,5.20
2018-12-20T04:50:21.133Z,5.15
2018-12-20T04:51:21.124Z,5.20
2018-12-20T04:52:21.148Z,5.12
2018-12-20T04:53:21.057Z,5.20
2018-12-20T04:54:21.041Z,5.20
2018-12-20T04:55:21.046Z,5.24
2018-12-20T04:56:21.054Z,5.22
2018-12-20T04:57:21.016Z,5.20
2018-12-20T04:58:21.185Z,5.17
2018-12-20T04:59:21.200Z,5.20
2018-12-20T05:00:21.170Z,5.21
2018-12-20T05:01:20.979Z,5.31
2018-12-20T05:02:21.296Z,5.30
2018-12-20T05:03:20.976Z,5.25
2018-12-20T05:04:20.938Z,5.33
2018-12-20T05:05:21.195Z,5.36
2018-12-20T05:06:20.911Z,5.38
2018-12-20T05:07:21.182Z,5.39
2018-12-20T05:08:20.905Z,5.40
2018-12-20T05:09:20.931Z,5.45
2018-12-20T05:10:20.894Z,5.42
2018-12-20T05:11:20.867Z,5.49
2018-12-20T05:12:20.842Z,5.45
2018-12-20T05:13:21.035Z,5.48
2018-12-20T05:14:21.003Z,5.58
2018-12-20T05:15:20.856Z,5.49
2018-12-20T05:16:20.971Z,5.57
2018-12-20T05:17:20.798Z,5.53
2018-12-20T05:18:20.771Z,5.58
2018-12-20T05:19:21.134Z,5.54
2018-12-20T05:20:21.008Z,5.58
2018-12-20T05:21:20.793Z,5.67
2018-12-20T05:22:20.875Z,5.68
2018-12-20T05:23:20.743Z,5.65
2018-12-20T05:24:20.708Z,5.68
2018-12-20T05:25:20.702Z,5.65
2018-12-20T05:26:20.768Z,5.65
2018-12-20T05:27:20.865Z,5.63
2018-12-20T05:28:20.791Z,5.61
2018-12-20T05:29:20.685Z,5.65
2018-12-20T05:30:20.789Z,5.65
2018-12-20T05:31:20.818Z,5.71
2018-12-20T05:32:20.621Z,5.71
2018-12-20T05:33:20.773Z,5.65
2018-12-20T05:34:20.596Z,5.64
2018-12-20T05:35:20.690Z,5.65
2018-12-20T05:36:20.753Z,5.67
2018-12-20T05:37:20.714Z,5.65
2018-12-20T05:38:20.619Z,5.78
2018-12-20T05:39:20.771Z,5.72
2018-12-20T05:40:20.537Z,5.72
2018-12-20T05:41:20.512Z,5.72
2018-12-20T05:42:20.753Z,5.78
2018-12-20T05:43:20.498Z,5.75
2018-12-20T05:44:20.552Z,5.75
2018-12-20T05:45:20.480Z,5.76
2018-12-20T05:46:20.641Z,5.75
2018-12-20T05:47:20.588Z,5.78
2018-12-20T05:48:20.509Z,5.75
2018-12-20T05:49:20.437Z,5.74
2018-12-20T05:50:20.419Z,5.78
2018-12-20T05:51:20.409Z,5.74
2018-12-20T05:52:20.543Z,5.74
2018-12-20T05:53:20.418Z,5.72
2018-12-20T05:54:20.440Z,5.74
2018-12-20T05:55:20.542Z,5.74
2018-12-20T05:56:20.349Z,5.78
2018-12-20T05:57:20.352Z,5.76
2018-12-20T05:58:20.391Z,5.78
2018-12-20T05:59:20.355Z,5.79
2018-12-20T06:00:20.538Z,5.72
2018-12-20T06:01:20.300Z,5.76
2018-12-20T06:02:20.308Z,5.72
2018-12-20T06:03:20.273Z,5.78
2018-12-20T06:04:20.556Z,5.75
2018-12-20T06:05:20.313Z,5.81
2018-12-20T06:06:20.458Z,5.82
2018-12-20T06:07:20.256Z,5.76
2018-12-20T06:08:20.493Z,5.74
2018-12-20T06:09:20.273Z,5.76
2018-12-20T06:10:20.204Z,5.79
2018-12-20T06:11:20.206Z,5.79
2018-12-20T06:12:20.478Z,5.85
2018-12-20T06:13:20.183Z,5.76
2018-12-20T06:14:20.148Z,5.72
2018-12-20T06:15:20.154Z,5.75
2018-12-20T06:16:20.144Z,5.76
2018-12-20T06:17:20.480Z,5.79
2018-12-20T06:18:20.150Z,5.75
2018-12-20T06:19:20.358Z,5.81
2018-12-20T06:20:20.288Z,5.75
2018-12-20T06:21:20.157Z,5.74
2018-12-20T06:22:20.180Z,5.75
2018-12-20T06:23:20.140Z,5.71
2018-12-20T06:24:20.064Z,5.74
2018-12-20T06:25:21.395Z,5.74
2018-12-20T06:26:20.060Z,5.74
2018-12-20T06:27:19.998Z,5.75
2018-12-20T06:28:19.991Z,5.78
2018-12-20T06:29:19.976Z,5.78
2018-12-20T06:30:19.971Z,5.79
2018-12-20T06:31:19.964Z,5.67
2018-12-20T06:32:19.987Z,5.75
2018-12-20T06:33:19.932Z,5.75
2018-12-20T06:34:19.937Z,5.72
2018-12-20T06:35:19.915Z,5.76
2018-12-20T06:36:19.907Z,5.78
2018-12-20T06:37:20.009Z,5.76
2018-12-20T06:38:19.882Z,5.75
2018-12-20T06:39:19.888Z,5.72
2018-12-20T06:40:19.889Z,5.81
2018-12-20T06:41:19.847Z,5.78
2018-12-20T06:42:19.844Z,5.81
2018-12-20T06:43:19.826Z,5.74
2018-12-20T06:44:19.829Z,5.75
2018-12-20T06:45:19.808Z,5.81
2018-12-20T06:46:21.290Z,5.81
2018-12-20T06:47:19.780Z,5.75
2018-12-20T06:48:19.770Z,5.75
2018-12-20T06:49:19.769Z,5.81
2018-12-20T06:50:19.783Z,5.76
2018-12-20T06:51:19.762Z,5.74
2018-12-20T06:52:19.728Z,5.81
2018-12-20T06:53:19.729Z,5.79
2018-12-20T06:54:19.710Z,5.78
2018-12-20T06:55:19.729Z,5.82
2018-12-20T06:56:19.679Z,5.75
2018-12-20T06:57:19.670Z,5.72
2018-12-20T06:58:19.670Z,5.74
2018-12-20T06:59:19.646Z,5.72
2018-12-20T07:00:19.659Z,5.76
2018-12-20T07:01:19.631Z,5.78
2018-12-20T07:02:19.613Z,5.75
2018-12-20T07:03:19.605Z,5.85
2018-12-20T07:04:19.594Z,5.89
2018-12-20T07:05:19.588Z,5.79
2018-12-20T07:06:19.592Z,5.81
2018-12-20T07:07:19.563Z,5.82
2018-12-20T07:08:19.581Z,5.90
2018-12-20T07:09:19.540Z,5.83
2018-12-20T07:10:19.557Z,5.83
2018-12-20T07:11:19.636Z,5.89
2018-12-20T07:12:19.549Z,5.83
2018-12-20T07:13:19.508Z,5.89
2018-12-20T07:14:19.499Z,5.81
2018-12-20T07:15:19.487Z,5.83
2018-12-20T07:16:19.496Z,5.85
2018-12-20T07:17:19.472Z,5.89
2018-12-20T07:18:19.453Z,5.91
2018-12-20T07:19:19.433Z,5.91
2018-12-20T07:20:19.421Z,5.94
2018-12-20T07:21:19.417Z,5.94
2018-12-20T07:22:21.525Z,5.91
2018-12-20T07:23:19.385Z,5.86
2018-12-20T07:24:19.379Z,5.91
2018-12-20T07:25:19.356Z,5.91
2018-12-20T07:26:19.371Z,5.97
2018-12-20T07:27:19.334Z,5.89
2018-12-20T07:28:19.347Z,5.83
2018-12-20T07:29:19.312Z,5.93
2018-12-20T07:30:19.320Z,5.91
2018-12-20T07:31:19.312Z,5.86
2018-12-20T07:32:25.132Z,5.90
2018-12-20T07:33:20.290Z,5.86
2018-12-20T07:34:19.261Z,5.90
2018-12-20T07:35:19.243Z,5.89
2018-12-20T07:36:19.232Z,5.99
2018-12-20T07:37:19.227Z,5.86
2018-12-20T07:38:19.243Z,5.91
2018-12-20T07:39:19.201Z,5.86
2018-12-20T07:40:19.187Z,5.86
2018-12-20T07:41:19.195Z,5.90
2018-12-20T07:42:19.166Z,5.94
2018-12-20T07:43:19.188Z,5.90
2018-12-20T07:44:19.174Z,5.89
2018-12-20T07:45:19.161Z,5.90
2018-12-20T07:46:19.134Z,5.89
2018-12-20T07:47:19.122Z,6.03
2018-12-20T07:48:19.114Z,5.89
2018-12-20T07:49:19.154Z,6.00
2018-12-20T07:50:19.087Z,5.96
2018-12-20T07:51:19.086Z,5.91
2018-12-20T07:52:19.056Z,5.94
2018-12-20T07:53:19.070Z,5.94
2018-12-20T07:54:19.033Z,5.91
2018-12-20T07:55:19.024Z,5.96
2018-12-20T07:56:19.014Z,5.96
2018-12-20T07:57:19.005Z,5.93
2018-12-20T07:58:19.030Z,5.96
2018-12-20T07:59:23.561Z,5.99
2018-12-20T08:00:18.976Z,5.97
2018-12-20T08:01:18.960Z,5.94
2018-12-20T08:02:18.957Z,5.94
2018-12-20T08:03:18.937Z,5.97
2018-12-20T08:04:18.947Z,5.94
2018-12-20T08:05:18.946Z,6.01
2018-12-20T08:06:18.902Z,6.03
2018-12-20T08:07:18.891Z,6.03
2018-12-20T08:08:18.885Z,5.97
2018-12-20T08:09:18.905Z,6.04
2018-12-20T08:10:18.866Z,5.94
2018-12-20T08:11:18.877Z,6.00
2018-12-20T08:12:18.843Z,6.08
2018-12-20T08:13:18.831Z,6.04
2018-12-20T08:14:18.839Z,5.99
2018-12-20T08:15:18.835Z,6.04
2018-12-20T08:16:18.792Z,6.01
2018-12-20T08:17:18.780Z,5.99
2018-12-20T08:18:18.780Z,6.04
2018-12-20T08:19:18.838Z,6.04
2018-12-20T08:20:18.762Z,6.04
2018-12-20T08:21:18.738Z,6.04
2018-12-20T08:22:18.730Z,6.06
2018-12-20T08:23:18.723Z,6.08
2018-12-20T08:24:18.708Z,6.04
2018-12-20T08:25:18.750Z,6.04
2018-12-20T08:26:18.696Z,6.14
2018-12-20T08:27:18.681Z,6.14
2018-12-20T08:28:18.680Z,6.15
2018-12-20T08:29:18.692Z,6.14
2018-12-20T08:30:18.676Z,6.19
2018-12-20T08:31:18.635Z,6.11
2018-12-20T08:32:18.622Z,6.09
2018-12-20T08:33:18.625Z,6.18
2018-12-20T08:34:18.601Z,6.18
2018-12-20T08:35:18.617Z,6.25
2018-12-20T08:36:18.601Z,6.21
2018-12-20T08:37:18.556Z,6.17
2018-12-20T08:38:18.562Z,6.21
2018-12-20T08:39:18.559Z,6.17
2018-12-20T08:40:18.572Z,6.17
2018-12-20T08:41:18.546Z,6.15
2018-12-20T08:42:18.514Z,6.15
2018-12-20T08:43:18.502Z,6.17
2018-12-20T08:44:18.497Z,6.33
2018-12-20T08:45:18.486Z,6.28
2018-12-20T08:46:18.495Z,6.17
2018-12-20T08:47:18.449Z,6.18
2018-12-20T08:48:18.440Z,6.18
2018-12-20T08:49:18.431Z,6.27
2018-12-20T08:50:18.422Z,6.27
2018-12-20T08:51:18.450Z,6.30
2018-12-20T08:52:18.395Z,6.31
2018-12-20T08:53:18.389Z,6.31
2018-12-20T08:54:18.383Z,6.38
2018-12-20T08:55:18.362Z,6.31
2018-12-20T08:56:18.414Z,6.38
2018-12-20T08:57:18.338Z,6.40
2018-12-20T08:58:18.337Z,6.40
2018-12-20T08:59:18.323Z,6.38
2018-12-20T09:00:18.336Z,6.36
2018-12-20T09:01:18.315Z,6.37
2018-12-20T09:02:18.321Z,6.38
2018-12-20T09:03:18.273Z,6.38
2018-12-20T09:04:18.297Z,6.38
2018-12-20T09:05:18.272Z,6.40
2018-12-20T09:06:18.255Z,6.40
2018-12-20T09:07:18.256Z,6.38
2018-12-20T09:08:18.222Z,6.33
2018-12-20T09:09:18.210Z,6.38
2018-12-20T09:10:18.194Z,6.40
2018-12-20T09:11:18.195Z,6.46
2018-12-20T09:12:18.207Z,6.37
2018-12-20T09:13:18.162Z,6.38
2018-12-20T09:14:18.173Z,6.40
2018-12-20T09:15:18.142Z,6.41
2018-12-20T09:16:18.127Z,6.46
2018-12-20T09:17:18.133Z,6.44
2018-12-20T09:18:18.117Z,6.56
2018-12-20T09:19:18.108Z,6.48
2018-12-20T09:20:18.089Z,6.56
2018-12-20T09:21:18.073Z,6.59
2018-12-20T09:22:18.094Z,6.54
2018-12-20T09:23:18.061Z,6.51
2018-12-20T09:24:18.049Z,6.56
2018-12-20T09:25:18.035Z,6.56
2018-12-20T09:26:18.036Z,6.59
2018-12-20T09:27:18.029Z,6.59
2018-12-20T09:28:18.016Z,6.66
2018-12-20T09:29:17.992Z,6.61
2018-12-20T09:30:17.990Z,6.52
2018-12-20T09:31:17.967Z,6.56
2018-12-20T09:32:17.985Z,6.59
2018-12-20T09:33:17.967Z,6.56
2018-12-20T09:34:17.947Z,6.54
2018-12-20T09:35:17.926Z,6.56
2018-12-20T09:36:17.913Z,6.56
2018-12-20T09:37:17.910Z,6.56
2018-12-20T09:38:17.916Z,6.51
2018-12-20T09:39:17.904Z,6.58
2018-12-20T09:40:17.894Z,6.55
2018-12-20T09:41:17.881Z,6.58
2018-12-20T09:42:17.861Z,6.52
2018-12-20T09:43:17.864Z,6.54
2018-12-20T09:44:17.842Z,6.52
2018-12-20T09:45:17.824Z,6.56
2018-12-20T09:46:17.837Z,6.58
2018-12-20T09:47:17.795Z,6.52
2018-12-20T09:48:17.814Z,6.54
2018-12-20T09:49:17.787Z,6.52
2018-12-20T09:50:17.772Z,6.59
2018-12-20T09:51:17.754Z,6.55
2018-12-20T09:52:17.743Z,6.56
2018-12-20T09:53:17.758Z,6.48
2018-12-20T09:54:17.751Z,6.56
2018-12-20T09:55:17.710Z,6.44
2018-12-20T09:56:17.686Z,6.43
2018-12-20T09:57:17.680Z,6.46
2018-12-20T09:58:17.672Z,6.40
2018-12-20T09:59:17.691Z,6.40
2018-12-20T10:00:17.646Z,6.46
2018-12-20T10:01:17.645Z,6.38
2018-12-20T10:02:17.628Z,6.41
2018-12-20T10:03:17.610Z,6.43
2018-12-20T10:04:17.623Z,6.49
2018-12-20T10:05:17.649Z,6.51
2018-12-20T10:06:17.583Z,6.61
2018-12-20T10:07:17.577Z,6.49
2018-12-20T10:08:17.554Z,6.46
2018-12-20T10:09:17.567Z,6.56
2018-12-20T10:10:17.589Z,6.58
2018-12-20T10:11:17.541Z,6.49
2018-12-20T10:12:17.516Z,6.55
2018-12-20T10:13:17.508Z,6.54
2018-12-20T10:14:17.518Z,6.61
2018-12-20T10:15:17.483Z,6.59
2018-12-20T10:16:17.478Z,6.51
2018-12-20T10:17:19.921Z,6.59
2018-12-20T10:18:17.479Z,6.59
2018-12-20T10:19:17.462Z,6.56
2018-12-20T10:20:17.450Z,6.56
2018-12-20T10:21:17.437Z,6.56
2018-12-20T10:22:17.417Z,6.54
2018-12-20T10:23:17.398Z,6.55
2018-12-20T10:24:17.391Z,6.55
2018-12-20T10:25:17.403Z,6.55
2018-12-20T10:26:17.376Z,6.56
2018-12-20T10:27:17.375Z,6.55
2018-12-20T10:28:17.353Z,6.52
2018-12-20T10:29:17.346Z,6.56
2018-12-20T10:30:17.340Z,6.59
2018-12-20T10:31:17.315Z,6.51
2018-12-20T10:32:17.305Z,6.55
2018-12-20T10:33:17.812Z,6.58
2018-12-20T10:34:17.273Z,6.59
2018-12-20T10:35:17.295Z,6.61
2018-12-20T10:36:17.306Z,6.58
2018-12-20T10:37:17.246Z,6.55
2018-12-20T10:38:17.229Z,6.54
2018-12-20T10:39:17.230Z,6.51
2018-12-20T10:40:17.232Z,6.56
2018-12-20T10:41:17.199Z,6.64
2018-12-20T10:42:17.180Z,6.62
2018-12-20T10:43:17.174Z,6.56
2018-12-20T10:44:17.161Z,6.55
2018-12-20T10:45:17.213Z,6.61
2018-12-20T10:46:17.177Z,6.58
2018-12-20T10:47:17.129Z,6.61
2018-12-20T10:48:17.120Z,6.69
2018-12-20T10:49:17.114Z,6.61
2018-12-20T10:50:17.111Z,6.61
2018-12-20T10:51:17.101Z,6.67
2018-12-20T10:52:17.311Z,6.64
2018-12-20T10:53:17.067Z,6.69
2018-12-20T10:54:17.054Z,6.61
2018-12-20T10:55:17.055Z,6.67
2018-12-20T10:56:17.063Z,6.56
2018-12-20T10:57:17.018Z,6.67
2018-12-20T10:58:17.007Z,6.64
2018-12-20T10:59:16.996Z,6.59
2018-12-20T11:00:16.991Z,6.51
2018-12-20T11:01:16.997Z,6.56
2018-12-20T11:02:16.965Z,6.58
2018-12-20T11:03:16.961Z,6.56
2018-12-20T11:04:16.937Z,6.51
2018-12-20T11:05:16.937Z,6.51
2018-12-20T11:06:16.915Z,6.55
2018-12-20T11:07:16.923Z,6.51
2018-12-20T11:08:16.895Z,6.52
2018-12-20T11:09:16.883Z,6.54
2018-12-20T11:10:16.875Z,6.54
2018-12-20T11:11:16.868Z,6.56
2018-12-20T11:12:16.880Z,6.51
2018-12-20T11:13:16.844Z,6.54
2018-12-20T11:14:16.836Z,6.55
2018-12-20T11:15:16.819Z,6.56
2018-12-20T11:16:16.814Z,6.62
2018-12-20T11:17:16.824Z,6.54
2018-12-20T11:18:16.786Z,6.55
2018-12-20T11:19:16.772Z,6.56
2018-12-20T11:20:16.755Z,6.49
2018-12-20T11:21:16.752Z,6.54
2018-12-20T11:22:16.814Z,6.59
2018-12-20T11:23:16.732Z,6.61
2018-12-20T11:24:16.721Z,6.56
2018-12-20T11:25:16.739Z,6.51
2018-12-20T11:26:16.737Z,6.56
2018-12-20T11:27:16.705Z,6.58
2018-12-20T11:28:16.679Z,6.61
2018-12-20T11:29:16.663Z,6.62
2018-12-20T11:30:16.662Z,6.59
2018-12-20T11:31:16.650Z,6.58
2018-12-20T11:32:16.658Z,6.62
2018-12-20T11:33:16.616Z,6.58
2018-12-20T11:34:16.624Z,6.58
2018-12-20T11:35:16.611Z,6.54
2018-12-20T11:36:16.592Z,6.55
2018-12-20T11:37:16.610Z,6.54
2018-12-20T11:38:16.594Z,6.58
2018-12-20T11:39:16.553Z,6.52
2018-12-20T11:40:16.549Z,6.55
2018-12-20T11:41:16.541Z,6.64
2018-12-20T11:42:16.526Z,6.64
2018-12-20T11:43:16.549Z,6.67
2018-12-20T11:44:16.514Z,6.64
2018-12-20T11:45:16.498Z,6.64
2018-12-20T11:46:16.484Z,6.71
2018-12-20T11:47:16.501Z,6.64
2018-12-20T11:48:16.484Z,6.67
2018-12-20T11:49:16.446Z,6.70
2018-12-20T11:50:16.430Z,6.69
2018-12-20T11:51:16.465Z,6.64
2018-12-20T11:52:16.418Z,6.66
2018-12-20T11:53:16.507Z,6.61
2018-12-20T11:54:16.406Z,6.71
2018-12-20T11:55:16.396Z,6.62
2018-12-20T11:56:16.384Z,6.66
2018-12-20T11:57:16.363Z,6.61
2018-12-20T11:58:16.373Z,6.69
2018-12-20T11:59:16.332Z,6.67
2018-12-20T12:00:16.344Z,6.69
2018-12-20T12:01:16.314Z,6.66
2018-12-20T12:02:24.251Z,6.61
2018-12-20T12:03:17.351Z,6.70
2018-12-20T12:04:16.274Z,6.66
2018-12-20T12:05:16.275Z,6.66
2018-12-20T12:06:16.255Z,6.71
2018-12-20T12:07:16.248Z,6.69
2018-12-20T12:08:16.235Z,6.73
2018-12-20T12:09:16.249Z,6.70
2018-12-20T12:10:16.214Z,6.67
2018-12-20T12:11:16.205Z,6.71
2018-12-20T12:12:16.196Z,6.70
2018-12-20T12:13:16.181Z,6.70
2018-12-20T12:14:16.187Z,6.62
2018-12-20T12:15:16.156Z,6.64
2018-12-20T12:16:16.147Z,6.64
2018-12-20T12:17:16.138Z,6.73
2018-12-20T12:18:16.127Z,6.74
2018-12-20T12:19:16.136Z,6.77
2018-12-20T12:20:16.113Z,6.79
2018-12-20T12:21:16.087Z,6.80
2018-12-20T12:22:16.081Z,6.79
2018-12-20T12:23:16.072Z,6.80
2018-12-20T12:24:16.094Z,6.77
2018-12-20T12:25:16.044Z,6.79
2018-12-20T12:26:16.031Z,6.84
2018-12-20T12:27:16.131Z,6.77
2018-12-20T12:28:16.013Z,6.74
2018-12-20T12:29:16.036Z,6.76
2018-12-20T12:30:16.020Z,6.71
2018-12-20T12:31:15.989Z,6.76
2018-12-20T12:32:15.963Z,6.76
2018-12-20T12:33:15.963Z,6.80
2018-12-20T12:34:15.962Z,6.85
2018-12-20T12:35:15.977Z,6.81
2018-12-20T12:36:15.923Z,6.85
2018-12-20T12:37:15.918Z,6.84
2018-12-20T12:38:15.901Z,6.80
2018-12-20T12:39:15.903Z,6.80
2018-12-20T12:40:15.892Z,6.84
2018-12-20T12:41:15.869Z,6.85
2018-12-20T12:42:15.860Z,6.84
2018-12-20T12:43:15.854Z,6.80
2018-12-20T12:44:15.860Z,6.88
2018-12-20T12:45:15.860Z,6.91
2018-12-20T12:46:15.818Z,6.88
2018-12-20T12:47:15.802Z,6.84
2018-12-20T12:48:15.793Z,6.84
2018-12-20T12:49:15.783Z,6.89
2018-12-20T12:50:15.822Z,6.85
2018-12-20T12:51:15.775Z,6.88
2018-12-20T12:52:15.763Z,6.91
2018-12-20T12:53:15.743Z,6.94
2018-12-20T12:54:15.731Z,6.84
2018-12-20T12:55:15.737Z,6.94
2018-12-20T12:56:15.735Z,6.88
2018-12-20T12:57:15.692Z,6.84
2018-12-20T12:58:15.679Z,6.87
2018-12-20T12:59:15.699Z,6.81
2018-12-20T13:00:15.677Z,6.88
2018-12-20T13:01:15.654Z,6.84
2018-12-20T13:02:15.639Z,6.87
2018-12-20T13:03:15.630Z,6.89
2018-12-20T13:04:15.626Z,6.87
2018-12-20T13:05:15.626Z,6.85
2018-12-20T13:06:15.610Z,6.81
2018-12-20T13:07:15.587Z,6.84
2018-12-20T13:08:15.574Z,6.80
2018-12-20T13:09:15.558Z,6.80
2018-12-20T13:10:15.564Z,6.89
2018-12-20T13:11:15.591Z,6.87
2018-12-20T13:12:15.546Z,6.81
2018-12-20T13:13:15.521Z,6.88
2018-12-20T13:14:15.507Z,6.88
2018-12-20T13:15:15.512Z,6.84
2018-12-20T13:16:15.516Z,6.81
2018-12-20T13:17:15.488Z,6.85
2018-12-20T13:18:15.463Z,6.85